Aeroboteco Virtual Airline

Aeroboteco Virtual Airlines! Uma nuvem a frente.



 INFORMAÇÕES METEOROLÓGICAS
METAR FOR LEBA
ADDS - METARS form results

(1010 UTC 16 January 2019)
Data provider http://aviationweather.gov/metar/data/
 
METAR text: LEBA 161000Z 07005KT 9999 BKN043 08/04 Q1022
Conditions at: LEBA (CORDOBA AIRPORT , ES) observed 1000 UTC 16 January 2019
Temperature: 8.0°C (46°F)
Dewpoint: 4.0°C (39°F) [RH = 76%]
Pressure (altimeter): 30.18 inches Hg (1022.0 mb)
Winds: from the ENE (70 degrees) at 6 MPH (5 knots; 2.6 m/s)
Visibility: 6 or more miles (10+ km)
Ceiling: 4300 feet AGL
Clouds: broken clouds at 4300 feet AGL
Weather: no significant weather observed at this time

METAR text: LEBA 160930Z 06003KT 9000 BKN043 07/04 Q1021
Conditions at: LEBA (CORDOBA AIRPORT , ES) observed 0930 UTC 16 January 2019
Temperature: 7.0°C (45°F)
Dewpoint: 4.0°C (39°F) [RH = 81%]
Pressure (altimeter): 30.15 inches Hg (1021.0 mb)
Winds: from the ENE (60 degrees) at 3 MPH (3 knots; 1.5 m/s)
Visibility: 6 miles ( 9 km)
Ceiling: 4300 feet AGL
Clouds: broken clouds at 4300 feet AGL
Weather: no significant weather observed at this time

Forecast for: LEBA (CORDOBA AIRPORT , ES)
Text: TAF LEBA 160800Z 1609/1618 08003KT 9999 BKN040
Forecast period: 0900 to 1800 UTC 16 January 2019
Forecast type: FROM: standard forecast or significant change
Winds: from the E (80 degrees) at 3 MPH (3 knots; 1.5 m/s)
Visibility: 6 or more miles 10+ km)
Ceiling: 4000 feet AGL
Clouds: broken clouds at 4000 feet AGL
Weather: no significant weather forecast for this period

 MAPA DO AEROPORTO

 INFORMAÇÕES DA PISTA
Pista 03 Tamanho da pista 4527 ft Largura da pista 148 ft
Elevação da pista 293 ft Ranhura da pista 0 ft Proa da pista 29
Pista 21 Tamanho da pista 4527 ft Largura da pista 148 ft
Elevação da pista 297 ft Ranhura da pista 0 ft Proa da pista 209

 FREQUÊNCIAS DO AEROPORTO
Tipo CTAF Nome CTAF Frequência 118.3 MHZ

 AUXÍLIOS DE NAVEGAÇÃO PRÓXIMOS AO AEROPORTO
Tipo VOR-DME Nome Cordoba Frequência 112400 KHZ
Tipo NDB Nome Cordoba Frequência 366 KHZ